createdAt,value
2023-04-23T00:03:58.969Z,7.10
2023-04-23T00:09:57.290Z,5.37
2023-04-23T00:15:52.396Z,6.30
2023-04-23T00:21:46.202Z,7.50
2023-04-23T00:27:39.482Z,7.47
2023-04-23T00:33:34.331Z,6.03
2023-04-23T00:39:27.560Z,6.33
2023-04-23T00:45:21.344Z,7.17
2023-04-23T00:51:18.126Z,7.00
2023-04-23T00:57:12.281Z,7.67
2023-04-23T01:03:06.665Z,7.50
2023-04-23T01:09:01.788Z,8.53
2023-04-23T01:14:55.016Z,8.47
2023-04-23T01:20:48.636Z,9.07
2023-04-23T01:26:43.454Z,8.57
2023-04-23T01:32:37.129Z,9.60
2023-04-23T01:38:32.498Z,8.20
2023-04-23T01:44:27.400Z,7.27
2023-04-23T01:50:22.241Z,8.10
2023-04-23T01:56:17.631Z,7.93
2023-04-23T02:02:14.228Z,8.80
2023-04-23T02:08:07.828Z,8.97
2023-04-23T02:14:01.449Z,8.10
2023-04-23T02:19:56.496Z,8.90
2023-04-23T02:25:52.620Z,10.17
2023-04-23T02:31:46.144Z,9.80
2023-04-23T02:37:41.175Z,12.17
2023-04-23T02:43:34.835Z,15.40
2023-04-23T02:49:28.246Z,18.77
2023-04-23T02:55:25.572Z,20.87
2023-04-23T03:01:19.211Z,23.13
2023-04-23T03:07:13.715Z,23.67
2023-04-23T03:13:08.730Z,22.40
2023-04-23T03:19:02.596Z,22.10
2023-04-23T03:24:56.339Z,22.57
2023-04-23T03:30:51.599Z,20.57
2023-04-23T03:36:46.850Z,19.90
2023-04-23T03:42:40.559Z,20.30
2023-04-23T03:48:36.577Z,20.37
2023-04-23T03:54:35.275Z,20.77
2023-04-23T04:00:32.499Z,21.13
2023-04-23T04:06:27.439Z,17.00
2023-04-23T04:12:22.388Z,17.63
2023-04-23T04:18:16.592Z,18.30
2023-04-23T04:24:11.867Z,18.37
2023-04-23T04:30:06.629Z,17.03
2023-04-23T04:36:00.885Z,17.00
2023-04-23T04:41:55.912Z,17.07
2023-04-23T04:47:49.338Z,15.50
2023-04-23T04:53:42.849Z,21.80
2023-04-23T04:59:37.676Z,14.23
2023-04-23T05:05:31.203Z,14.23
2023-04-23T05:11:24.658Z,11.80
2023-04-23T05:17:19.078Z,11.90
2023-04-23T05:23:12.088Z,10.33
2023-04-23T05:29:05.559Z,9.97
2023-04-23T05:35:00.463Z,10.47
2023-04-23T05:40:54.426Z,8.63
2023-04-23T05:46:47.849Z,10.93
2023-04-23T05:52:42.202Z,9.70
2023-04-23T05:58:35.472Z,7.93
2023-04-23T06:04:28.804Z,6.97
2023-04-23T06:10:23.391Z,7.50
2023-04-23T06:16:17.058Z,7.60
2023-04-23T06:22:10.132Z,6.00
2023-04-23T06:28:04.527Z,5.00
2023-04-23T06:34:05.358Z,5.60
2023-04-23T06:39:58.883Z,6.60
2023-04-23T06:45:53.252Z,5.10
2023-04-23T06:51:46.222Z,6.00
2023-04-23T06:57:39.666Z,7.53
2023-04-23T07:03:34.046Z,6.27
2023-04-23T07:09:28.048Z,7.13
2023-04-23T07:15:21.156Z,7.23
2023-04-23T07:21:15.568Z,6.97
2023-04-23T07:27:08.851Z,8.53
2023-04-23T07:33:01.980Z,9.27
2023-04-23T07:38:56.866Z,9.00
2023-04-23T07:44:49.848Z,7.00
2023-04-23T07:50:43.668Z,7.93
2023-04-23T07:56:38.676Z,7.50
2023-04-23T08:02:31.829Z,8.73
2023-04-23T08:08:25.570Z,8.20
2023-04-23T08:14:20.329Z,11.27
2023-04-23T08:20:13.528Z,6.90
2023-04-23T08:26:07.111Z,9.30
2023-04-23T08:32:01.625Z,6.47
2023-04-23T08:37:54.803Z,5.70
2023-04-23T08:43:52.719Z,5.30
2023-04-23T08:49:50.560Z,5.97
2023-04-23T08:55:43.783Z,5.13
2023-04-23T09:01:37.450Z,8.70
2023-04-23T09:07:33.913Z,6.43
2023-04-23T09:13:27.120Z,4.63
2023-04-23T09:19:20.623Z,6.67
2023-04-23T09:25:17.489Z,6.00
2023-04-23T09:31:11.296Z,4.93
2023-04-23T09:37:06.600Z,7.40
2023-04-23T09:43:04.577Z,6.90
2023-04-23T09:48:58.808Z,5.73
2023-04-23T09:54:52.524Z,8.63
2023-04-23T10:00:48.250Z,7.87
2023-04-23T10:06:50.176Z,6.80
2023-04-23T10:12:56.013Z,5.40
2023-04-23T10:18:52.610Z,5.20
2023-04-23T10:24:49.462Z,5.97
2023-04-23T10:30:44.087Z,6.83
2023-04-23T10:36:38.755Z,5.20
2023-04-23T10:42:33.082Z,7.83
2023-04-23T10:48:29.476Z,5.60
2023-04-23T10:54:29.153Z,5.53
2023-04-23T11:00:23.797Z,8.03
2023-04-23T11:06:43.288Z,8.83
2023-04-23T11:12:40.169Z,5.77
2023-04-23T11:18:53.534Z,10.30
2023-04-23T11:24:49.546Z,6.87
2023-04-23T11:30:45.132Z,7.50
2023-04-23T11:36:38.668Z,8.60
2023-04-23T11:42:32.182Z,9.60
2023-04-23T11:48:26.975Z,9.33
2023-04-23T11:54:20.524Z,8.37
2023-04-23T12:00:19.216Z,8.50
2023-04-23T12:06:13.575Z,8.73
2023-04-23T12:12:07.068Z,7.20
2023-04-23T12:18:11.063Z,6.67
2023-04-23T12:24:06.634Z,6.30
2023-04-23T12:30:05.026Z,5.00
2023-04-23T12:36:01.274Z,4.90
2023-04-23T12:41:57.000Z,4.50
2023-04-23T12:47:50.554Z,4.70
2023-04-23T12:53:44.157Z,4.57
2023-04-23T12:59:38.590Z,3.20
2023-04-23T13:05:32.180Z,3.80
2023-04-23T13:11:25.650Z,4.07
2023-04-23T13:17:20.316Z,4.67
2023-04-23T13:23:13.752Z,4.03
2023-04-23T13:29:07.532Z,4.60
2023-04-23T13:35:05.393Z,5.30
2023-04-23T13:40:58.465Z,3.27
2023-04-23T13:46:51.890Z,2.80
2023-04-23T13:52:46.649Z,3.30
2023-04-23T13:58:43.216Z,2.57
2023-04-23T14:04:36.688Z,2.53
2023-04-23T14:10:31.517Z,2.60
2023-04-23T14:16:25.068Z,2.50
2023-04-23T14:22:18.744Z,4.47
2023-04-23T14:28:29.546Z,3.53
2023-04-23T14:34:22.643Z,3.07
2023-04-23T14:40:19.799Z,2.10
2023-04-23T14:46:14.735Z,3.13
2023-04-23T14:52:08.380Z,2.33
2023-04-23T14:58:01.776Z,5.73
2023-04-23T15:03:56.779Z,4.17
2023-04-23T15:09:50.274Z,4.87
2023-04-23T15:15:46.179Z,2.63
2023-04-23T15:21:43.376Z,2.13
2023-04-23T15:27:36.858Z,2.20
2023-04-23T15:33:31.063Z,2.47
2023-04-23T15:39:26.253Z,3.73
2023-04-23T15:45:19.281Z,3.30
2023-04-23T15:51:13.014Z,2.80
2023-04-23T15:57:07.897Z,3.67
2023-04-23T16:03:04.865Z,2.07
2023-04-23T16:08:58.375Z,4.13
2023-04-23T16:14:53.232Z,2.13
2023-04-23T16:20:46.785Z,3.13
2023-04-23T16:26:40.176Z,3.63
2023-04-23T16:32:36.280Z,2.70
2023-04-23T16:38:29.398Z,2.53
2023-04-23T16:44:22.780Z,2.20
2023-04-23T16:50:17.629Z,4.07
2023-04-23T16:56:11.389Z,2.30
2023-04-23T17:02:04.934Z,1.90
2023-04-23T17:07:59.942Z,1.80
2023-04-23T17:13:53.493Z,4.03
2023-04-23T17:19:46.649Z,3.60
2023-04-23T17:25:41.747Z,3.67
2023-04-23T17:31:36.144Z,4.50
2023-04-23T17:37:33.589Z,4.03
2023-04-23T17:43:29.168Z,3.97
2023-04-23T17:49:22.864Z,5.23
2023-04-23T17:55:15.929Z,3.70
2023-04-23T18:01:11.128Z,4.73
2023-04-23T18:07:04.569Z,3.50
2023-04-23T18:12:58.144Z,3.80
2023-04-23T18:18:53.039Z,3.63
2023-04-23T18:24:46.491Z,4.07
2023-04-23T18:30:40.211Z,4.60
2023-04-23T18:36:37.990Z,3.83
2023-04-23T18:42:30.993Z,3.80
2023-04-23T18:48:46.365Z,3.77
2023-04-23T18:54:41.441Z,6.50
2023-04-23T19:00:35.030Z,5.90
2023-04-23T19:06:28.603Z,4.10
2023-04-23T19:12:23.038Z,6.77
2023-04-23T19:18:16.473Z,6.10
2023-04-23T19:24:09.474Z,7.50
2023-04-23T19:30:05.018Z,6.80
2023-04-23T19:35:58.137Z,6.50
2023-04-23T19:41:51.603Z,4.10
2023-04-23T19:47:46.168Z,3.73
2023-04-23T19:53:39.630Z,3.30
2023-04-23T19:59:33.033Z,3.50
2023-04-23T20:05:29.174Z,3.30
2023-04-23T20:11:23.224Z,3.33
2023-04-23T20:17:16.751Z,3.40
2023-04-23T20:23:11.521Z,3.00
2023-04-23T20:29:05.432Z,5.23
2023-04-23T20:35:00.348Z,4.37
2023-04-23T20:40:57.073Z,3.23
2023-04-23T20:46:51.290Z,3.33
2023-04-23T20:52:44.863Z,3.87
2023-04-23T20:58:39.165Z,5.90
2023-04-23T21:04:32.282Z,3.77
2023-04-23T21:10:25.888Z,4.93
2023-04-23T21:16:21.198Z,3.80
2023-04-23T21:22:14.632Z,3.63
2023-04-23T21:28:08.378Z,4.17
2023-04-23T21:34:03.120Z,4.37
2023-04-23T21:39:56.585Z,5.17
2023-04-23T21:45:50.063Z,5.20
2023-04-23T21:51:44.533Z,6.03
2023-04-23T21:57:38.083Z,4.60
2023-04-23T22:03:38.296Z,4.30
2023-04-23T22:09:33.838Z,4.30
2023-04-23T22:15:28.886Z,4.67
2023-04-23T22:21:22.362Z,4.57
2023-04-23T22:27:16.685Z,4.60
2023-04-23T22:33:09.702Z,5.27
2023-04-23T22:39:05.027Z,4.20
2023-04-23T22:44:59.953Z,3.50
2023-04-23T22:50:53.408Z,4.07
2023-04-23T22:56:46.619Z,4.33
2023-04-23T23:02:41.973Z,3.70
2023-04-23T23:08:35.258Z,4.10
2023-04-23T23:14:29.321Z,3.63
2023-04-23T23:20:24.136Z,5.57
2023-04-23T23:26:17.715Z,3.37
2023-04-23T23:32:11.160Z,3.87
2023-04-23T23:38:05.628Z,5.20
2023-04-23T23:43:59.173Z,4.57
2023-04-23T23:49:52.220Z,3.93
2023-04-23T23:55:46.545Z,4.30
